Time;durP1;ratioP1;P1;durP2;ratioP2;P2;SDS_P1;SDS_P2;PMS_P1;PMS_P2;Temp;Humidity;BMP_temperature;BMP_pressure;BME280_temperature;BME280_humidity;BME280_pressure;Samples;Min_cycle;Max_cycle;Signal;HPM_P1;HPM_P2
2024/04/15 00:00:13;;;;;;;3.05;2.13;;;;;;;;;;5319910;26;20474;-78
2024/04/15 00:02:40;;;;;;;3.35;2.20;;;;;;;;;;5320703;26;20015;-77
2024/04/15 00:05:07;;;;;;;3.45;2.40;;;;;;;;;;5352476;26;20082;-78
2024/04/15 00:07:34;;;;;;;3.20;2.50;;;;;;;;;;5350826;26;20005;-79
2024/04/15 00:10:01;;;;;;;5.47;2.50;;;;;;;;;;5311345;26;20020;-78
2024/04/15 00:12:27;;;;;;;4.35;2.10;;;;;;;;;;5339521;26;20009;-78
2024/04/15 00:14:54;;;;;;;2.28;1.80;;;;;;;;;;5321685;26;19997;-82
2024/04/15 00:17:21;;;;;;;3.58;2.13;;;;;;;;;;5317987;26;20009;-79
2024/04/15 00:19:50;;;;;;;4.43;2.20;;;;;;;;;;5319258;26;20090;-80
2024/04/15 00:22:17;;;;;;;2.45;1.90;;;;;;;;;;5321922;26;20005;-79
2024/04/15 00:24:44;;;;;;;2.58;2.00;;;;;;;;;;5311410;26;20019;-78
2024/04/15 00:27:10;;;;;;;2.60;2.40;;;;;;;;;;5321694;26;20480;-79
2024/04/15 00:29:37;;;;;;;3.00;2.53;;;;;;;;;;5321600;26;20005;-79
2024/04/15 00:32:04;;;;;;;4.15;2.40;;;;;;;;;;5320064;26;20009;-79
2024/04/15 00:34:31;;;;;;;4.07;2.35;;;;;;;;;;5319321;26;20012;-80
2024/04/15 00:36:58;;;;;;;3.70;2.30;;;;;;;;;;5362461;26;20363;-79
2024/04/15 00:39:28;;;;;;;2.40;1.80;;;;;;;;;;5321075;26;20004;-80
2024/04/15 00:41:54;;;;;;;2.47;2.08;;;;;;;;;;5321090;26;20005;-81
2024/04/15 00:44:29;;;;;;;2.58;2.00;;;;;;;;;;5320497;26;20009;-80
2024/04/15 00:46:56;;;;;;;1.92;1.77;;;;;;;;;;5323955;26;20475;-79
2024/04/15 00:49:23;;;;;;;2.33;1.80;;;;;;;;;;5324794;26;20009;-80
2024/04/15 00:51:49;;;;;;;2.55;1.90;;;;;;;;;;5324107;26;20459;-80
2024/04/15 00:54:16;;;;;;;2.33;1.58;;;;;;;;;;5322073;26;20503;-80
2024/04/15 00:56:43;;;;;;;5.85;2.03;;;;;;;;;;5325868;26;20013;-79
2024/04/15 00:59:10;;;;;;;2.20;1.70;;;;;;;;;;5324663;26;20001;-80
2024/04/15 01:01:37;;;;;;;2.88;2.38;;;;;;;;;;5353972;26;20020;-80
2024/04/15 01:04:04;;;;;;;2.55;2.35;;;;;;;;;;5324769;26;20009;-79
2024/04/15 01:06:31;;;;;;;2.45;1.70;;;;;;;;;;5317143;26;20057;-79
2024/04/15 01:08:57;;;;;;;6.43;2.30;;;;;;;;;;5318682;26;20015;-79
2024/04/15 01:11:24;;;;;;;3.45;1.60;;;;;;;;;;5324728;26;20005;-79
2024/04/15 01:13:51;;;;;;;4.82;1.90;;;;;;;;;;5329579;26;20367;-80
2024/04/15 01:16:18;;;;;;;5.05;1.70;;;;;;;;;;5328838;26;20910;-80
2024/04/15 01:18:44;;;;;;;2.45;1.83;;;;;;;;;;5338583;26;20024;-80
2024/04/15 01:21:11;;;;;;;3.35;1.50;;;;;;;;;;5351339;26;20009;-80
2024/04/15 01:23:38;;;;;;;1.92;1.60;;;;;;;;;;5319331;26;20005;-80
2024/04/15 01:26:05;;;;;;;3.13;1.60;;;;;;;;;;5321630;26;20023;-80
2024/04/15 01:28:32;;;;;;;3.08;1.70;;;;;;;;;;5322856;26;20016;-79
2024/04/15 01:30:59;;;;;;;1.98;1.63;;;;;;;;;;5317128;26;20014;-79
2024/04/15 01:33:25;;;;;;;3.00;1.50;;;;;;;;;;5351647;26;20463;-80
2024/04/15 01:35:52;;;;;;;4.65;1.63;;;;;;;;;;5322539;26;20720;-81
2024/04/15 01:38:19;;;;;;;3.28;1.85;;;;;;;;;;5321146;26;20004;-81
2024/04/15 01:40:45;;;;;;;4.15;1.65;;;;;;;;;;5323450;26;20009;-81
2024/04/15 01:43:12;;;;;;;2.22;1.65;;;;;;;;;;5325005;26;20005;-81
2024/04/15 01:45:39;;;;;;;2.53;1.85;;;;;;;;;;5324133;26;20346;-81
2024/04/15 01:48:06;;;;;;;4.25;1.65;;;;;;;;;;5313730;26;20009;-81
2024/04/15 01:50:33;;;;;;;2.67;2.00;;;;;;;;;;5316554;26;20481;-81
2024/04/15 01:52:59;;;;;;;2.17;1.80;;;;;;;;;;5313868;26;20078;-81
2024/04/15 01:55:26;;;;;;;3.20;2.10;;;;;;;;;;5319103;26;20004;-81
2024/04/15 01:57:53;;;;;;;1.75;1.60;;;;;;;;;;5320485;26;20008;-82
2024/04/15 02:00:20;;;;;;;3.03;2.05;;;;;;;;;;5319326;26;20009;-81
2024/04/15 02:02:46;;;;;;;2.55;1.95;;;;;;;;;;5319616;26;20016;-81
2024/04/15 02:05:13;;;;;;;3.25;2.15;;;;;;;;;;5290649;26;20020;-80
2024/04/15 02:07:40;;;;;;;4.18;1.90;;;;;;;;;;5318847;26;20005;-80
2024/04/15 02:10:07;;;;;;;2.75;1.52;;;;;;;;;;5290864;26;20020;-80
2024/04/15 02:12:34;;;;;;;1.80;1.60;;;;;;;;;;5320084;26;20003;-80
2024/04/15 02:15:01;;;;;;;3.78;1.50;;;;;;;;;;5291340;26;20079;-80
2024/04/15 02:17:28;;;;;;;3.50;1.70;;;;;;;;;;5297508;26;20004;-80
2024/04/15 02:19:55;;;;;;;1.90;1.48;;;;;;;;;;5357398;26;20008;-80
2024/04/15 02:22:21;;;;;;;1.48;1.38;;;;;;;;;;5291373;26;20001;-81
2024/04/15 02:24:48;;;;;;;2.92;1.30;;;;;;;;;;5291349;26;20086;-81
2024/04/15 02:27:15;;;;;;;2.42;1.50;;;;;;;;;;5314080;26;20004;-81
2024/04/15 02:29:42;;;;;;;2.05;1.80;;;;;;;;;;5304927;26;20056;-79
2024/04/15 02:32:08;;;;;;;3.40;1.38;;;;;;;;;;5332084;26;20012;-80
2024/04/15 02:34:35;;;;;;;1.85;1.52;;;;;;;;;;5302141;26;20029;-79
2024/04/15 02:37:02;;;;;;;2.35;1.40;;;;;;;;;;5324071;26;20007;-80
2024/04/15 02:39:29;;;;;;;1.60;1.40;;;;;;;;;;5296779;26;20479;-81
2024/04/15 02:41:56;;;;;;;5.18;1.58;;;;;;;;;;5322253;26;20013;-80
2024/04/15 02:44:22;;;;;;;3.45;1.60;;;;;;;;;;5291861;26;20024;-81
2024/04/15 02:46:49;;;;;;;1.23;1.10;;;;;;;;;;5320445;26;20020;-80
2024/04/15 02:49:16;;;;;;;2.85;1.50;;;;;;;;;;5293352;26;20009;-81
2024/04/15 02:51:43;;;;;;;2.88;1.48;;;;;;;;;;5318558;26;20009;-81
2024/04/15 02:54:10;;;;;;;2.45;1.40;;;;;;;;;;5295810;26;20045;-80
2024/04/15 02:56:37;;;;;;;1.65;1.35;;;;;;;;;;5325274;26;20016;-81
2024/04/15 02:59:04;;;;;;;3.65;1.85;;;;;;;;;;5297263;26;20009;-81
2024/04/15 03:01:31;;;;;;;3.15;1.23;;;;;;;;;;5321467;26;20017;-81
2024/04/15 03:03:57;;;;;;;3.67;1.30;;;;;;;;;;5293703;26;20028;-81
2024/04/15 03:06:24;;;;;;;2.70;1.30;;;;;;;;;;5321995;26;20019;-81
2024/04/15 03:08:51;;;;;;;2.53;1.50;;;;;;;;;;5325680;26;20055;-83
2024/04/15 03:11:18;;;;;;;2.25;1.10;;;;;;;;;;5304558;26;20434;-81
2024/04/15 03:13:46;;;;;;;3.15;1.42;;;;;;;;;;5305028;26;20033;-83
2024/04/15 03:16:12;;;;;;;3.22;1.25;;;;;;;;;;5304615;26;20066;-83
2024/04/15 03:18:51;;;;;;;2.58;1.38;;;;;;;;;;5308556;26;20025;-80
2024/04/15 03:21:17;;;;;;;0.82;0.82;;;;;;;;;;5333181;26;20012;-81
2024/04/15 03:23:45;;;;;;;1.75;1.02;;;;;;;;;;5364541;26;20005;-79
2024/04/15 03:26:12;;;;;;;5.15;2.03;;;;;;;;;;5332884;26;20009;-81
2024/04/15 03:28:38;;;;;;;2.30;1.60;;;;;;;;;;5333259;26;20005;-81
2024/04/15 03:31:05;;;;;;;1.30;1.20;;;;;;;;;;5333668;26;20016;-83
2024/04/15 03:33:34;;;;;;;3.50;1.50;;;;;;;;;;5326862;26;20020;-83
2024/04/15 03:36:01;;;;;;;4.75;1.60;;;;;;;;;;5317318;26;20001;-83
2024/04/15 03:38:28;;;;;;;4.45;2.00;;;;;;;;;;5289960;26;20490;-83
2024/04/15 03:40:54;;;;;;;2.47;1.70;;;;;;;;;;5353923;26;20013;-80
2024/04/15 03:43:21;;;;;;;8.13;2.10;;;;;;;;;;5324881;26;20455;-79
2024/04/15 03:45:48;;;;;;;5.57;1.95;;;;;;;;;;5297327;26;20020;-80
2024/04/15 03:48:15;;;;;;;3.20;1.73;;;;;;;;;;5327801;26;20084;-79
2024/04/15 03:50:41;;;;;;;3.50;1.67;;;;;;;;;;5338823;26;20417;-80
2024/04/15 03:53:08;;;;;;;4.20;1.88;;;;;;;;;;5297800;26;20086;-79
2024/04/15 03:55:35;;;;;;;2.33;1.90;;;;;;;;;;5303357;26;20054;-78
2024/04/15 03:58:02;;;;;;;4.97;2.25;;;;;;;;;;5328511;26;20059;-79
2024/04/15 04:00:30;;;;;;;2.83;2.22;;;;;;;;;;5330103;26;20004;-81
2024/04/15 04:02:57;;;;;;;6.43;2.20;;;;;;;;;;5317625;26;20015;-84
2024/04/15 04:05:23;;;;;;;5.13;2.55;;;;;;;;;;5361398;26;19996;-81
2024/04/15 04:07:50;;;;;;;3.63;2.60;;;;;;;;;;5301200;26;20023;-81
2024/04/15 04:10:18;;;;;;;4.30;2.20;;;;;;;;;;5325132;26;20052;-80
2024/04/15 04:12:46;;;;;;;7.57;3.33;;;;;;;;;;5326312;26;20005;-79
2024/04/15 04:15:13;;;;;;;3.28;2.92;;;;;;;;;;5363767;26;20005;-79
2024/04/15 04:17:40;;;;;;;3.75;3.38;;;;;;;;;;5336871;26;20491;-78
2024/04/15 04:20:07;;;;;;;4.20;2.78;;;;;;;;;;5335937;26;20005;-79
2024/04/15 04:22:33;;;;;;;8.77;3.60;;;;;;;;;;5320261;26;20042;-80
2024/04/15 04:25:00;;;;;;;5.10;3.35;;;;;;;;;;5322837;26;20009;-79
2024/04/15 04:27:27;;;;;;;5.82;4.15;;;;;;;;;;5327368;26;20017;-79
2024/04/15 04:29:54;;;;;;;9.63;3.50;;;;;;;;;;5326605;26;20012;-79
2024/04/15 04:32:21;;;;;;;6.80;3.67;;;;;;;;;;5325346;26;20378;-79
2024/04/15 04:34:47;;;;;;;4.20;3.50;;;;;;;;;;5324197;26;20009;-78
2024/04/15 04:37:14;;;;;;;6.45;3.65;;;;;;;;;;5323392;26;20005;-79
2024/04/15 04:39:41;;;;;;;10.15;4.07;;;;;;;;;;5325321;26;20017;-79
2024/04/15 04:42:08;;;;;;;5.55;3.58;;;;;;;;;;5324983;26;20025;-79
2024/04/15 04:44:35;;;;;;;6.57;4.00;;;;;;;;;;5326725;26;20009;-78
2024/04/15 04:47:02;;;;;;;8.57;4.43;;;;;;;;;;5323378;26;20263;-80
2024/04/15 04:49:28;;;;;;;11.10;4.38;;;;;;;;;;5313429;26;20023;-82
2024/04/15 04:51:55;;;;;;;4.80;4.07;;;;;;;;;;5349535;26;20013;-80
2024/04/15 04:54:22;;;;;;;5.47;3.55;;;;;;;;;;5327541;26;20052;-80
2024/04/15 04:56:51;;;;;;;6.25;3.92;;;;;;;;;;5316202;26;20058;-83
2024/04/15 04:59:17;;;;;;;4.82;4.20;;;;;;;;;;5324260;26;20045;-83
2024/04/15 05:01:44;;;;;;;6.97;4.35;;;;;;;;;;5309422;26;20004;-81
2024/04/15 05:04:11;;;;;;;6.18;4.50;;;;;;;;;;5337262;26;20342;-82
2024/04/15 05:06:38;;;;;;;6.63;4.80;;;;;;;;;;5323309;26;20021;-81
2024/04/15 05:09:05;;;;;;;8.32;4.35;;;;;;;;;;5321447;26;20016;-81
2024/04/15 05:11:36;;;;;;;5.65;4.18;;;;;;;;;;5325061;26;20037;-79
2024/04/15 05:14:03;;;;;;;6.88;4.78;;;;;;;;;;5322446;26;20421;-82
2024/04/15 05:16:30;;;;;;;12.88;4.55;;;;;;;;;;5325045;26;20090;-79
2024/04/15 05:18:57;;;;;;;4.55;3.85;;;;;;;;;;5326418;26;20020;-80
2024/04/15 05:21:24;;;;;;;6.07;3.85;;;;;;;;;;5317978;26;20009;-78
2024/04/15 05:23:50;;;;;;;7.45;3.38;;;;;;;;;;5320990;26;20005;-79
2024/04/15 05:26:17;;;;;;;7.53;3.20;;;;;;;;;;5319929;26;20471;-86
2024/04/15 05:28:44;;;;;;;4.63;3.55;;;;;;;;;;5317215;26;20016;-83
2024/04/15 05:31:11;;;;;;;4.82;3.30;;;;;;;;;;5316189;26;20033;-82
2024/04/15 05:33:38;;;;;;;5.18;3.47;;;;;;;;;;5318509;26;20016;-81
2024/04/15 05:36:05;;;;;;;3.95;3.08;;;;;;;;;;5312701;26;20072;-80
2024/04/15 05:38:32;;;;;;;6.43;3.20;;;;;;;;;;5316817;26;20288;-80
2024/04/15 05:40:59;;;;;;;7.47;3.10;;;;;;;;;;5314287;26;20067;-84
2024/04/15 05:43:26;;;;;;;4.10;2.90;;;;;;;;;;5314976;26;20645;-78
2024/04/15 05:45:53;;;;;;;4.20;2.80;;;;;;;;;;5316182;26;20001;-84
2024/04/15 05:48:20;;;;;;;4.88;2.58;;;;;;;;;;5315468;26;20011;-86
2024/04/15 05:50:47;;;;;;;4.13;2.65;;;;;;;;;;5327372;26;20015;-82
2024/04/15 05:53:13;;;;;;;5.85;2.45;;;;;;;;;;5336115;26;20005;-83
2024/04/15 05:55:40;;;;;;;7.13;2.88;;;;;;;;;;5315446;26;20001;-78
2024/04/15 05:58:08;;;;;;;3.28;2.05;;;;;;;;;;5319004;26;20005;-77
2024/04/15 06:00:34;;;;;;;4.65;2.83;;;;;;;;;;5326770;26;20010;-79
2024/04/15 06:03:02;;;;;;;4.15;2.22;;;;;;;;;;5295209;27;20060;-76
2024/04/15 06:05:28;;;;;;;5.75;2.40;;;;;;;;;;5276452;26;20015;-78
2024/04/15 06:07:55;;;;;;;4.38;2.30;;;;;;;;;;5317375;26;20019;-78
2024/04/15 06:10:24;;;;;;;4.35;2.17;;;;;;;;;;5291281;26;20005;-76
2024/04/15 06:12:51;;;;;;;3.22;2.20;;;;;;;;;;5318903;26;20019;-78
2024/04/15 06:15:18;;;;;;;4.47;1.90;;;;;;;;;;5289544;26;20001;-78
2024/04/15 06:17:45;;;;;;;4.90;2.42;;;;;;;;;;5333823;26;20025;-77
2024/04/15 06:20:12;;;;;;;3.63;1.52;;;;;;;;;;5316983;26;20001;-78
2024/04/15 06:22:39;;;;;;;2.10;1.60;;;;;;;;;;5322402;26;20059;-75
2024/04/15 06:25:06;;;;;;;3.15;2.05;;;;;;;;;;5318457;26;20016;-78
2024/04/15 06:27:33;;;;;;;2.25;1.65;;;;;;;;;;5316945;26;20008;-81
2024/04/15 06:30:04;;;;;;;3.58;1.63;;;;;;;;;;5314034;26;20020;-78
2024/04/15 06:32:31;;;;;;;1.48;1.38;;;;;;;;;;5312310;26;20036;-77
2024/04/15 06:34:58;;;;;;;3.28;1.90;;;;;;;;;;5311889;26;20499;-77
2024/04/15 06:37:24;;;;;;;8.07;1.70;;;;;;;;;;5312656;26;20005;-79
2024/04/15 06:39:51;;;;;;;4.20;1.67;;;;;;;;;;5306369;26;20471;-80
2024/04/15 06:42:18;;;;;;;2.17;1.08;;;;;;;;;;5310798;26;20017;-78
2024/04/15 06:44:45;;;;;;;2.10;1.10;;;;;;;;;;5300368;26;20009;-77
2024/04/15 06:47:12;;;;;;;2.80;1.30;;;;;;;;;;5328491;26;20086;-77
2024/04/15 06:49:39;;;;;;;3.60;1.70;;;;;;;;;;5329890;26;20059;-77
2024/04/15 06:52:06;;;;;;;10.10;1.50;;;;;;;;;;5326119;26;20075;-80
2024/04/15 06:54:33;;;;;;;5.35;1.58;;;;;;;;;;5312706;26;20017;-77
2024/04/15 06:57:01;;;;;;;2.80;1.38;;;;;;;;;;5328148;26;20083;-75
2024/04/15 06:59:27;;;;;;;2.95;1.25;;;;;;;;;;5334205;26;20019;-75
2024/04/15 07:01:54;;;;;;;3.50;1.23;;;;;;;;;;5281385;26;20006;-75
2024/04/15 07:04:21;;;;;;;2.60;1.27;;;;;;;;;;5302652;26;20017;-78
2024/04/15 07:06:48;;;;;;;3.80;1.27;;;;;;;;;;5321778;26;20008;-76
2024/04/15 07:09:15;;;;;;;2.83;1.50;;;;;;;;;;5307228;26;20024;-76
2024/04/15 07:11:42;;;;;;;5.28;1.25;;;;;;;;;;5301470;26;20001;-75
2024/04/15 07:14:09;;;;;;;4.50;1.75;;;;;;;;;;5281095;26;20012;-75
2024/04/15 07:16:36;;;;;;;2.60;1.27;;;;;;;;;;5302068;26;20013;-75
2024/04/15 07:19:02;;;;;;;4.55;1.48;;;;;;;;;;5299357;26;20012;-74
2024/04/15 07:21:29;;;;;;;1.75;1.30;;;;;;;;;;5326138;26;20040;-75
2024/04/15 07:23:56;;;;;;;2.65;1.48;;;;;;;;;;5311958;26;20076;-75
2024/04/15 07:26:23;;;;;;;4.22;1.58;;;;;;;;;;5309927;26;20009;-74
2024/04/15 07:28:51;;;;;;;5.55;1.70;;;;;;;;;;5315745;26;20079;-75
2024/04/15 07:31:18;;;;;;;3.08;1.40;;;;;;;;;;5300375;26;20064;-75
2024/04/15 07:33:45;;;;;;;4.13;1.98;;;;;;;;;;5298362;26;20005;-75
2024/04/15 07:36:12;;;;;;;3.22;1.80;;;;;;;;;;5325272;26;20012;-75
2024/04/15 07:38:39;;;;;;;3.40;1.70;;;;;;;;;;5295825;26;20427;-76
2024/04/15 07:41:05;;;;;;;2.45;1.60;;;;;;;;;;5333512;26;20078;-77
2024/04/15 07:43:32;;;;;;;3.65;1.90;;;;;;;;;;5303782;26;20078;-77
2024/04/15 07:45:59;;;;;;;4.32;1.80;;;;;;;;;;5315381;26;20037;-73
2024/04/15 07:48:26;;;;;;;5.32;1.73;;;;;;;;;;5338034;26;20004;-73
2024/04/15 07:50:52;;;;;;;2.92;2.60;;;;;;;;;;5310220;26;20025;-73
2024/04/15 07:53:19;;;;;;;6.70;2.38;;;;;;;;;;5314054;26;20091;-73
2024/04/15 07:55:47;;;;;;;3.97;2.20;;;;;;;;;;5315421;26;20016;-74
2024/04/15 07:58:15;;;;;;;6.30;2.30;;;;;;;;;;5337900;26;20002;-74
2024/04/15 08:00:43;;;;;;;7.68;2.42;;;;;;;;;;5311529;26;20079;-73
2024/04/15 08:03:11;;;;;;;4.72;2.20;;;;;;;;;;5298370;26;20488;-73
2024/04/15 08:05:38;;;;;;;4.97;2.00;;;;;;;;;;5322654;26;20559;-74
2024/04/15 08:08:06;;;;;;;3.20;2.38;;;;;;;;;;5319903;26;20020;-74
2024/04/15 08:10:33;;;;;;;5.43;2.58;;;;;;;;;;5301341;26;20078;-74
2024/04/15 08:13:00;;;;;;;4.75;2.25;;;;;;;;;;5313973;26;20077;-74
2024/04/15 08:15:27;;;;;;;6.10;3.17;;;;;;;;;;5336821;26;20001;-74
2024/04/15 08:17:54;;;;;;;5.32;2.58;;;;;;;;;;5336821;26;20075;-74
2024/04/15 08:20:22;;;;;;;4.50;3.10;;;;;;;;;;5336993;26;20001;-74
2024/04/15 08:22:49;;;;;;;7.82;3.60;;;;;;;;;;5334394;26;20024;-73
2024/04/15 08:25:16;;;;;;;5.20;2.80;;;;;;;;;;5333024;26;20006;-74
2024/04/15 08:27:43;;;;;;;4.72;3.10;;;;;;;;;;5310482;26;20005;-73
2024/04/15 08:30:11;;;;;;;3.72;2.67;;;;;;;;;;5296928;26;20006;-74
2024/04/15 08:32:38;;;;;;;5.22;2.90;;;;;;;;;;5300480;26;20013;-73
2024/04/15 08:35:05;;;;;;;5.82;3.67;;;;;;;;;;5291411;26;20293;-73
2024/04/15 08:37:32;;;;;;;5.47;3.22;;;;;;;;;;5325410;26;20001;-72
2024/04/15 08:40:00;;;;;;;6.13;3.22;;;;;;;;;;5330911;26;20014;-72
2024/04/15 08:42:50;;;;;;;6.57;4.05;;;;;;;;;;5325300;26;20023;-73
2024/04/15 08:45:18;;;;;;;6.70;3.65;;;;;;;;;;5330525;26;20009;-73
2024/04/15 08:47:50;;;;;;;4.45;3.35;;;;;;;;;;5337155;26;20005;-73
2024/04/15 08:50:17;;;;;;;6.65;4.32;;;;;;;;;;5312047;26;20091;-74
2024/04/15 08:52:44;;;;;;;5.10;3.45;;;;;;;;;;5304515;26;20418;-74
2024/04/15 08:55:11;;;;;;;5.78;4.05;;;;;;;;;;5336464;26;20414;-73
2024/04/15 08:57:38;;;;;;;5.47;4.00;;;;;;;;;;5309967;26;20061;-74
2024/04/15 09:00:05;;;;;;;6.25;3.63;;;;;;;;;;5268665;26;20058;-74
2024/04/15 09:02:32;;;;;;;6.53;4.18;;;;;;;;;;5283441;26;20009;-73
2024/04/15 09:04:59;;;;;;;6.70;3.95;;;;;;;;;;5302133;26;20019;-73
2024/04/15 09:07:26;;;;;;;6.25;3.53;;;;;;;;;;5317388;26;20012;-75
2024/04/15 09:09:53;;;;;;;5.50;3.58;;;;;;;;;;5321158;26;20005;-73
2024/04/15 09:12:19;;;;;;;8.55;3.10;;;;;;;;;;5348147;26;20020;-75
2024/04/15 09:14:46;;;;;;;5.97;3.22;;;;;;;;;;5325608;26;20006;-75
2024/04/15 09:17:15;;;;;;;5.43;2.90;;;;;;;;;;5324333;26;20020;-76
2024/04/15 09:19:47;;;;;;;8.15;3.55;;;;;;;;;;5345203;26;20311;-75
2024/04/15 09:22:14;;;;;;;8.77;4.13;;;;;;;;;;5318364;26;20012;-75
2024/04/15 09:24:40;;;;;;;4.80;3.15;;;;;;;;;;5311981;26;20732;-74
2024/04/15 09:27:07;;;;;;;7.40;3.17;;;;;;;;;;5331214;26;20020;-76
2024/04/15 09:29:34;;;;;;;6.65;3.58;;;;;;;;;;5309132;26;20699;-75
2024/04/15 09:32:01;;;;;;;8.05;3.50;;;;;;;;;;5315437;26;20776;-75
2024/04/15 09:34:27;;;;;;;5.25;3.03;;;;;;;;;;5294178;26;20009;-75
2024/04/15 09:36:55;;;;;;;7.35;3.20;;;;;;;;;;5319992;26;20048;-74
2024/04/15 09:39:23;;;;;;;5.50;3.03;;;;;;;;;;5302252;26;20006;-74
2024/04/15 09:41:50;;;;;;;4.53;2.90;;;;;;;;;;5300404;26;20368;-75
2024/04/15 09:44:17;;;;;;;4.20;2.67;;;;;;;;;;5300930;26;20082;-74
2024/04/15 09:46:44;;;;;;;6.85;3.17;;;;;;;;;;5306662;26;20013;-74
2024/04/15 09:49:11;;;;;;;6.47;2.70;;;;;;;;;;5335127;26;20013;-75
2024/04/15 09:51:37;;;;;;;5.32;2.80;;;;;;;;;;5304161;26;20045;-75
2024/04/15 09:54:07;;;;;;;7.20;2.97;;;;;;;;;;5318744;26;20411;-75
2024/04/15 09:56:35;;;;;;;5.22;2.60;;;;;;;;;;5329827;26;20048;-76
2024/04/15 09:59:01;;;;;;;4.85;2.38;;;;;;;;;;5329906;26;20027;-74
2024/04/15 10:01:30;;;;;;;4.43;2.50;;;;;;;;;;5322696;26;20001;-75
2024/04/15 10:04:03;;;;;;;4.72;2.17;;;;;;;;;;5293265;26;20041;-75
2024/04/15 10:06:31;;;;;;;4.18;2.10;;;;;;;;;;5266938;26;20013;-75
2024/04/15 10:08:58;;;;;;;6.78;2.70;;;;;;;;;;5295804;26;20087;-75
2024/04/15 10:11:26;;;;;;;3.50;2.00;;;;;;;;;;5312436;26;20017;-75
2024/04/15 10:13:53;;;;;;;5.32;2.88;;;;;;;;;;5276040;26;20018;-74
2024/04/15 10:16:19;;;;;;;4.07;2.20;;;;;;;;;;5337416;26;20020;-74
2024/04/15 10:19:04;;;;;;;3.50;2.20;;;;;;;;;;5332649;26;20021;-74
2024/04/15 10:21:35;;;;;;;7.28;2.92;;;;;;;;;;5311681;26;20348;-75
2024/04/15 10:24:05;;;;;;;7.15;1.88;;;;;;;;;;5303514;26;20055;-75
2024/04/15 10:26:32;;;;;;;3.95;2.03;;;;;;;;;;5324232;26;20009;-75
2024/04/15 10:29:17;;;;;;;4.38;1.50;;;;;;;;;;5295182;26;20471;-75
2024/04/15 10:31:50;;;;;;;5.20;2.03;;;;;;;;;;5321282;26;20004;-74
2024/04/15 10:34:17;;;;;;;3.88;1.85;;;;;;;;;;5322311;26;20005;-75
2024/04/15 10:36:47;;;;;;;3.60;1.80;;;;;;;;;;5328630;26;20013;-74
2024/04/15 10:39:15;;;;;;;4.82;1.95;;;;;;;;;;5321677;26;20009;-75
2024/04/15 10:41:45;;;;;;;5.32;1.88;;;;;;;;;;5272280;26;20008;-75
2024/04/15 10:44:12;;;;;;;4.95;1.70;;;;;;;;;;5305394;26;20084;-75
2024/04/15 10:46:40;;;;;;;6.03;1.35;;;;;;;;;;5334776;26;20009;-74
2024/04/15 10:49:06;;;;;;;4.00;1.70;;;;;;;;;;5301243;26;20001;-74
2024/04/15 10:51:34;;;;;;;2.60;1.80;;;;;;;;;;5310237;26;20016;-74
2024/04/15 10:54:00;;;;;;;1.95;1.40;;;;;;;;;;5314477;26;20088;-75
2024/04/15 10:56:28;;;;;;;2.60;1.35;;;;;;;;;;5326235;26;20005;-75
2024/04/15 10:58:54;;;;;;;1.83;1.00;;;;;;;;;;5321379;26;20006;-75
2024/04/15 11:01:21;;;;;;;6.00;1.48;;;;;;;;;;5321130;26;20010;-74
2024/04/15 11:03:48;;;;;;;3.92;1.20;;;;;;;;;;5294151;26;20455;-74
2024/04/15 11:06:18;;;;;;;2.80;1.10;;;;;;;;;;5326146;26;20053;-74
2024/04/15 11:08:45;;;;;;;3.78;1.02;;;;;;;;;;5290614;26;20018;-74
2024/04/15 11:11:12;;;;;;;2.15;1.08;;;;;;;;;;5329216;26;20372;-74
2024/04/15 11:13:40;;;;;;;3.03;1.25;;;;;;;;;;5288991;26;20020;-78
2024/04/15 11:16:10;;;;;;;4.93;1.20;;;;;;;;;;5318373;26;20013;-82
2024/04/15 11:18:37;;;;;;;3.45;1.10;;;;;;;;;;5311200;26;20005;-80
2024/04/15 11:21:04;;;;;;;2.45;1.10;;;;;;;;;;5331631;26;20016;-79
2024/04/15 11:23:31;;;;;;;4.38;1.58;;;;;;;;;;5314277;26;20010;-77
2024/04/15 11:25:58;;;;;;;9.05;1.38;;;;;;;;;;5316225;26;20060;-77
2024/04/15 11:28:25;;;;;;;3.25;1.00;;;;;;;;;;5327237;26;20083;-77
2024/04/15 11:30:51;;;;;;;3.40;1.25;;;;;;;;;;5334128;26;20046;-74
2024/04/15 11:33:19;;;;;;;3.53;1.00;;;;;;;;;;5299881;26;21680;-77
2024/04/15 11:35:50;;;;;;;4.43;1.33;;;;;;;;;;5333531;26;20066;-77
2024/04/15 11:38:18;;;;;;;3.72;1.25;;;;;;;;;;5336480;26;20053;-77
2024/04/15 11:40:45;;;;;;;4.30;1.33;;;;;;;;;;5335284;26;20005;-77
2024/04/15 11:43:12;;;;;;;5.05;1.58;;;;;;;;;;5310142;26;20439;-77
2024/04/15 11:45:52;;;;;;;3.10;1.02;;;;;;;;;;5339215;26;20471;-77
2024/04/15 11:48:20;;;;;;;5.07;1.00;;;;;;;;;;5340125;26;20005;-77
2024/04/15 11:50:50;;;;;;;6.85;1.67;;;;;;;;;;5322981;26;20009;-76
2024/04/15 11:53:20;;;;;;;2.70;0.88;;;;;;;;;;5313606;26;20020;-77
2024/04/15 11:55:47;;;;;;;2.83;0.95;;;;;;;;;;5314558;26;20074;-77
2024/04/15 11:58:14;;;;;;;8.75;1.20;;;;;;;;;;5318741;26;20005;-78
2024/04/15 12:00:43;;;;;;;2.75;1.00;;;;;;;;;;5309876;26;20010;-77
2024/04/15 12:03:10;;;;;;;2.70;0.80;;;;;;;;;;5303605;26;20013;-76
2024/04/15 12:05:37;;;;;;;3.15;1.13;;;;;;;;;;5314573;26;20009;-75
2024/04/15 12:08:04;;;;;;;1.90;1.23;;;;;;;;;;5313911;26;20060;-77
2024/04/15 12:10:31;;;;;;;4.47;1.10;;;;;;;;;;5341254;26;20095;-76
2024/04/15 12:12:58;;;;;;;7.07;1.08;;;;;;;;;;5311091;26;20025;-76
2024/04/15 12:15:25;;;;;;;1.35;0.95;;;;;;;;;;5344589;26;20510;-76
2024/04/15 12:17:52;;;;;;;3.25;1.17;;;;;;;;;;5306801;26;20009;-76
2024/04/15 12:20:19;;;;;;;3.38;1.15;;;;;;;;;;5312897;26;20020;-76
2024/04/15 12:22:46;;;;;;;3.70;1.17;;;;;;;;;;5307162;26;20006;-77
2024/04/15 12:25:13;;;;;;;4.80;1.13;;;;;;;;;;5338902;26;20083;-76
2024/04/15 12:27:43;;;;;;;7.97;1.35;;;;;;;;;;5329800;26;20053;-76
2024/04/15 12:30:12;;;;;;;7.70;2.10;;;;;;;;;;5313606;26;20001;-76
2024/04/15 12:32:40;;;;;;;2.88;1.20;;;;;;;;;;5297368;26;20513;-77
2024/04/15 12:35:07;;;;;;;3.38;1.25;;;;;;;;;;5301248;26;20475;-77
2024/04/15 12:37:34;;;;;;;4.05;2.20;;;;;;;;;;5313533;26;20009;-77
2024/04/15 12:40:04;;;;;;;2.97;1.25;;;;;;;;;;5306961;26;20005;-77
2024/04/15 12:42:31;;;;;;;4.35;1.63;;;;;;;;;;5317201;26;20006;-79
2024/04/15 12:44:57;;;;;;;6.93;1.75;;;;;;;;;;5313567;26;20036;-77
2024/04/15 12:47:25;;;;;;;3.40;1.42;;;;;;;;;;5319637;26;20008;-77
2024/04/15 12:49:52;;;;;;;2.08;1.27;;;;;;;;;;5311540;26;20021;-77
2024/04/15 12:52:19;;;;;;;1.98;1.17;;;;;;;;;;5301797;26;20094;-77
2024/04/15 12:54:45;;;;;;;3.83;1.30;;;;;;;;;;5330590;26;20080;-76
2024/04/15 12:57:17;;;;;;;7.28;1.30;;;;;;;;;;5322645;26;20044;-77
2024/04/15 12:59:44;;;;;;;3.80;1.33;;;;;;;;;;5310355;26;20021;-76
2024/04/15 13:02:10;;;;;;;4.00;0.95;;;;;;;;;;5328236;26;20001;-77
2024/04/15 13:04:37;;;;;;;3.72;1.33;;;;;;;;;;5327591;26;20005;-77
2024/04/15 13:07:04;;;;;;;2.08;0.93;;;;;;;;;;5330504;26;20009;-77
2024/04/15 13:09:31;;;;;;;5.38;1.42;;;;;;;;;;5319406;26;20005;-78
2024/04/15 13:11:58;;;;;;;6.57;1.90;;;;;;;;;;5346970;26;20016;-79
2024/04/15 13:14:25;;;;;;;2.60;1.33;;;;;;;;;;5292900;26;20011;-79
2024/04/15 13:16:52;;;;;;;5.68;1.58;;;;;;;;;;5346969;26;20020;-79
2024/04/15 13:19:19;;;;;;;2.92;1.45;;;;;;;;;;5318030;26;20016;-79
2024/04/15 13:21:46;;;;;;;2.80;1.13;;;;;;;;;;5326326;26;20005;-79
2024/04/15 13:24:12;;;;;;;3.28;1.15;;;;;;;;;;5350548;26;20017;-78
2024/04/15 13:26:39;;;;;;;8.20;2.35;;;;;;;;;;5338693;26;20009;-79
2024/04/15 13:29:06;;;;;;;2.38;1.00;;;;;;;;;;5331545;26;20013;-79
2024/04/15 13:31:33;;;;;;;3.05;1.27;;;;;;;;;;5336962;26;20031;-79
2024/04/15 13:34:00;;;;;;;4.78;1.17;;;;;;;;;;5343455;26;20005;-79
2024/04/15 13:36:28;;;;;;;6.30;1.33;;;;;;;;;;5339806;26;20016;-78
2024/04/15 13:38:55;;;;;;;4.68;1.13;;;;;;;;;;5322899;26;20024;-78
2024/04/15 13:41:22;;;;;;;5.05;1.05;;;;;;;;;;5342280;26;20005;-78
2024/04/15 13:43:49;;;;;;;3.75;1.10;;;;;;;;;;5342243;26;20040;-78
2024/04/15 13:46:15;;;;;;;5.57;1.70;;;;;;;;;;5344082;26;20015;-77
2024/04/15 13:48:42;;;;;;;3.72;1.45;;;;;;;;;;5317350;26;20762;-78
2024/04/15 13:51:09;;;;;;;3.50;1.20;;;;;;;;;;5321798;26;20009;-78
2024/04/15 13:53:36;;;;;;;6.70;1.00;;;;;;;;;;5327441;26;20001;-78
2024/04/15 13:56:03;;;;;;;5.53;1.00;;;;;;;;;;5325770;26;20019;-78
2024/04/15 13:58:30;;;;;;;4.50;1.13;;;;;;;;;;5357712;26;20013;-79
2024/04/15 14:00:57;;;;;;;3.53;0.80;;;;;;;;;;5327474;26;20013;-79
2024/04/15 14:03:24;;;;;;;7.28;1.10;;;;;;;;;;5331699;26;20000;-78
2024/04/15 14:05:51;;;;;;;4.20;1.05;;;;;;;;;;5325356;26;20043;-79
2024/04/15 14:08:19;;;;;;;2.75;1.13;;;;;;;;;;5362074;26;20049;-79
2024/04/15 14:10:46;;;;;;;5.18;0.95;;;;;;;;;;5333032;26;20005;-79
2024/04/15 14:13:13;;;;;;;4.13;1.15;;;;;;;;;;5328681;26;20075;-77
2024/04/15 14:15:40;;;;;;;10.57;1.35;;;;;;;;;;5316983;26;20008;-78
2024/04/15 14:18:08;;;;;;;6.13;0.90;;;;;;;;;;5334235;26;20013;-78
2024/04/15 14:20:34;;;;;;;10.07;0.85;;;;;;;;;;5316602;26;20051;-77
2024/04/15 14:23:01;;;;;;;6.32;1.10;;;;;;;;;;5330205;26;20491;-75
2024/04/15 14:25:28;;;;;;;4.15;1.10;;;;;;;;;;5272035;26;20013;-75
2024/04/15 14:27:55;;;;;;;9.07;1.58;;;;;;;;;;5327180;26;20013;-75
2024/04/15 14:30:22;;;;;;;4.45;1.10;;;;;;;;;;5284269;26;20463;-76
2024/04/15 14:32:49;;;;;;;4.82;0.85;;;;;;;;;;5302108;26;20024;-75
2024/04/15 14:35:17;;;;;;;3.53;0.70;;;;;;;;;;5347969;26;20009;-80
2024/04/15 14:37:44;;;;;;;1.48;0.98;;;;;;;;;;5333501;26;20000;-79
2024/04/15 14:40:11;;;;;;;2.28;0.88;;;;;;;;;;5294600;26;20511;-79
2024/04/15 14:42:49;;;;;;;5.82;1.65;;;;;;;;;;5327572;26;20000;-79